Time,TemperatureF,DewpointF,PressureIn,WindDirection,WindDirectionDegrees,WindSpeedMPH,WindSpeedGustMPH,Humidity,HourlyPrecipIn,Conditions,Clouds,dailyrainin,SoftwareType,DateUTC
2013-05-26 00:03:00,44.0,30.0,-100.00,NW,315,1.0,3.0,59,0.00,,,-99.99,,2013-05-26 04:03:00,
2013-05-26 00:12:00,43.0,30.0,-100.00,West,270,2.0,4.0,59,0.00,,,-99.99,,2013-05-26 04:12:00,
2013-05-26 00:23:00,43.0,31.0,-100.00,WNW,300,1.0,2.0,62,0.00,,,-99.99,,2013-05-26 04:23:00,
2013-05-26 00:33:00,42.0,31.0,-100.00,West,275,1.0,2.0,64,0.00,,,-99.99,,2013-05-26 04:33:00,
2013-05-26 00:42:00,42.0,31.0,-100.00,West,265,1.0,3.0,65,0.00,,,-99.99,,2013-05-26 04:42:00,
2013-05-26 00:52:00,41.0,31.0,-100.00,West,275,0.0,2.0,68,0.00,,,-99.99,,2013-05-26 04:52:00,
2013-05-26 01:02:00,41.0,31.0,-100.00,NW,320,1.0,2.0,68,0.00,,,-99.99,,2013-05-26 05:02:00,
2013-05-26 01:12:00,40.0,31.0,-100.00,West,280,0.0,1.0,68,0.00,,,-99.99,,2013-05-26 05:12:00,
2013-05-26 01:22:00,40.0,31.0,-100.00,ENE,60,0.0,0.0,69,0.00,,,-99.99,,2013-05-26 05:22:00,
2013-05-26 01:32:00,39.0,31.0,-100.00,South,185,0.0,0.0,71,0.00,,,-99.99,,2013-05-26 05:32:00,
2013-05-26 01:42:00,39.0,31.0,-100.00,SW,215,0.0,1.0,73,0.00,,,-99.99,,2013-05-26 05:42:00,
2013-05-26 01:52:00,38.0,31.0,-100.00,SSE,160,0.0,1.0,75,0.00,,,-99.99,,2013-05-26 05:52:00,
2013-05-26 02:01:00,38.0,32.0,-100.00,South,170,1.0,2.0,77,0.00,,,-99.99,,2013-05-26 06:01:00,
2013-05-26 02:12:00,38.0,32.0,-100.00,SW,220,1.0,2.0,78,0.00,,,-99.99,,2013-05-26 06:12:00,
2013-05-26 02:22:00,38.0,31.0,-100.00,WSW,245,1.0,2.0,75,0.00,,,-99.99,,2013-05-26 06:22:00,
2013-05-26 02:32:00,38.0,31.0,-100.00,SW,235,0.0,2.0,75,0.00,,,-99.99,,2013-05-26 06:32:00,
2013-05-26 02:42:00,39.0,31.0,-100.00,WNW,285,0.0,0.0,74,0.00,,,-99.99,,2013-05-26 06:42:00,
2013-05-26 02:52:00,38.0,31.0,-100.00,SW,230,0.0,0.0,75,0.00,,,-99.99,,2013-05-26 06:52:00,
2013-05-26 03:01:00,38.0,31.0,-100.00,WSW,240,0.0,1.0,76,0.00,,,-99.99,,2013-05-26 07:01:00,
2013-05-26 03:11:00,38.0,31.0,-100.00,SSW,210,1.0,3.0,77,0.00,,,-99.99,,2013-05-26 07:11:00,
2013-05-26 03:22:00,37.0,31.0,-100.00,SSW,205,0.0,1.0,79,0.00,,,-99.99,,2013-05-26 07:22:00,
2013-05-26 03:32:00,37.0,31.0,-100.00,South,185,0.0,1.0,80,0.00,,,-99.99,,2013-05-26 07:32:00,
2013-05-26 03:42:00,37.0,31.0,-100.00,SSE,155,0.0,1.0,81,0.00,,,-99.99,,2013-05-26 07:42:00,
2013-05-26 03:52:00,36.0,31.0,-100.00,NE,40,0.0,0.0,82,0.00,,,-99.99,,2013-05-26 07:52:00,
2013-05-26 04:01:00,36.0,31.0,-100.00,East,85,0.0,0.0,83,0.00,,,-99.99,,2013-05-26 08:01:00,
2013-05-26 04:12:00,36.0,31.0,-100.00,SW,235,0.0,0.0,84,0.00,,,-99.99,,2013-05-26 08:12:00,
2013-05-26 04:21:00,35.0,31.0,-100.00,West,280,0.0,0.0,84,0.00,,,-99.99,,2013-05-26 08:21:00,
2013-05-26 04:32:00,35.0,31.0,-100.00,NE,45,0.0,0.0,85,0.00,,,-99.99,,2013-05-26 08:32:00,
2013-05-26 04:42:00,35.0,31.0,-100.00,North,350,0.0,0.0,86,0.00,,,-99.99,,2013-05-26 08:42:00,
2013-05-26 04:53:00,35.0,31.0,-100.00,NW,320,0.0,0.0,86,0.00,,,-99.99,,2013-05-26 08:53:00,
2013-05-26 05:01:00,34.0,31.0,-100.00,SSW,205,0.0,0.0,86,0.00,,,-99.99,,2013-05-26 09:01:00,
2013-05-26 05:11:00,34.0,31.0,-100.00,SSE,165,0.0,0.0,86,0.00,,,-99.99,,2013-05-26 09:11:00,
2013-05-26 05:21:00,34.0,31.0,-100.00,SSW,195,0.0,0.0,87,0.00,,,-99.99,,2013-05-26 09:21:00,
2013-05-26 05:33:00,34.0,30.0,-100.00,South,190,0.0,0.0,87,0.00,,,-99.99,,2013-05-26 09:33:00,
2013-05-26 05:42:00,34.0,31.0,-100.00,SSW,205,0.0,1.0,87,0.00,,,-99.99,,2013-05-26 09:42:00,
2013-05-26 05:52:00,34.0,31.0,-100.00,North,350,0.0,0.0,87,0.00,,,-99.99,,2013-05-26 09:52:00,
2013-05-26 06:03:00,34.0,31.0,-100.00,SW,225,0.0,1.0,88,0.00,,,-99.99,,2013-05-26 10:03:00,
2013-05-26 06:12:00,34.0,30.0,-100.00,NE,50,0.0,0.0,87,0.00,,,-99.99,,2013-05-26 10:12:00,
2013-05-26 06:23:00,33.0,30.0,-100.00,NNE,30,0.0,1.0,88,0.00,,,-99.99,,2013-05-26 10:23:00,
2013-05-26 06:33:00,34.0,31.0,-100.00,East,80,0.0,0.0,87,0.00,,,-99.99,,2013-05-26 10:33:00,
2013-05-26 06:42:00,34.0,31.0,-100.00,South,180,0.0,0.0,87,0.00,,,-99.99,,2013-05-26 10:42:00,
2013-05-26 06:52:00,35.0,32.0,-100.00,NNE,25,0.0,0.0,87,0.00,,,-99.99,,2013-05-26 10:52:00,
2013-05-26 07:03:00,36.0,32.0,-100.00,North,10,0.0,2.0,85,0.00,,,-99.99,,2013-05-26 11:03:00,
2013-05-26 07:11:00,37.0,33.0,-100.00,SW,235,0.0,0.0,83,0.00,,,-99.99,,2013-05-26 11:11:00,
2013-05-26 07:22:00,38.0,33.0,-100.00,SSE,155,0.0,0.0,82,0.00,,,-99.99,,2013-05-26 11:22:00,
2013-05-26 07:32:00,39.0,34.0,-100.00,SW,230,0.0,0.0,81,0.00,,,-99.99,,2013-05-26 11:32:00,
2013-05-26 07:42:00,40.0,35.0,-100.00,SW,225,0.0,1.0,80,0.00,,,-99.99,,2013-05-26 11:42:00,
2013-05-26 07:52:00,41.0,35.0,-100.00,SW,225,0.0,2.0,78,0.00,,,-99.99,,2013-05-26 11:52:00,
2013-05-26 08:02:00,43.0,37.0,-100.00,SW,215,0.0,1.0,77,0.00,,,-99.99,,2013-05-26 12:02:00,
2013-05-26 08:12:00,44.0,37.0,-100.00,West,270,0.0,2.0,75,0.00,,,-99.99,,2013-05-26 12:12:00,
2013-05-26 08:21:00,45.0,37.0,-100.00,WSW,255,1.0,4.0,74,0.00,,,-99.99,,2013-05-26 12:21:00,
2013-05-26 08:32:00,46.0,38.0,-100.00,West,260,2.0,4.0,71,0.00,,,-99.99,,2013-05-26 12:32:00,
2013-05-26 08:42:00,48.0,38.0,-100.00,NW,325,2.0,4.0,68,0.00,,,-99.99,,2013-05-26 12:42:00,
2013-05-26 08:52:00,49.0,38.0,-100.00,North,355,2.0,5.0,65,0.00,,,-99.99,,2013-05-26 12:52:00,
2013-05-26 09:02:00,49.0,37.0,-100.00,North,355,6.0,8.0,62,0.00,,,-99.99,,2013-05-26 13:02:00,
2013-05-26 09:11:00,50.0,38.0,-100.00,NNW,345,4.0,9.0,62,0.00,,,-99.99,,2013-05-26 13:11:00,
2013-05-26 09:21:00,51.0,38.0,-100.00,North,355,7.0,12.0,61,0.00,,,-99.99,,2013-05-26 13:21:00,
2013-05-26 09:32:00,51.0,37.0,-100.00,NW,315,4.0,9.0,58,0.00,,,-99.99,,2013-05-26 13:32:00,
2013-05-26 09:42:00,52.0,38.0,-100.00,NNW,335,3.0,9.0,56,0.00,,,-99.99,,2013-05-26 13:42:00,
2013-05-26 09:52:00,53.0,37.0,-100.00,NW,325,3.0,9.0,55,0.00,,,-99.99,,2013-05-26 13:52:00,
2013-05-26 10:02:00,53.0,36.0,-100.00,NW,320,4.0,9.0,52,0.00,,,-99.99,,2013-05-26 14:02:00,
2013-05-26 10:11:00,54.0,37.0,-100.00,WNW,290,4.0,9.0,51,0.00,,,-99.99,,2013-05-26 14:11:00,
2013-05-26 10:21:00,55.0,36.0,-100.00,NNW,330,6.0,9.0,48,0.00,,,-99.99,,2013-05-26 14:21:00,
2013-05-26 10:32:00,56.0,35.0,-100.00,North,355,5.0,12.0,46,0.00,,,-99.99,,2013-05-26 14:32:00,
2013-05-26 10:42:00,56.0,33.0,-100.00,NW,320,7.0,11.0,41,0.00,,,-99.99,,2013-05-26 14:42:00,
2013-05-26 10:52:00,57.0,33.0,-100.00,NNW,345,10.0,16.0,41,0.00,,,-99.99,,2013-05-26 14:52:00,
2013-05-26 11:02:00,57.0,34.0,-100.00,NNW,345,6.0,15.0,40,0.00,,,-99.99,,2013-05-26 15:02:00,
2013-05-26 11:12:00,57.0,33.0,-100.00,NW,315,9.0,12.0,39,0.00,,,-99.99,,2013-05-26 15:12:00,
2013-05-26 11:22:00,57.0,32.0,-100.00,NW,315,10.0,16.0,37,0.00,,,-99.99,,2013-05-26 15:22:00,
2013-05-26 11:33:00,57.0,31.0,-100.00,West,270,9.0,18.0,37,0.00,,,-99.99,,2013-05-26 15:33:00,
2013-05-26 11:43:00,58.0,31.0,-100.00,NNW,340,9.0,19.0,35,0.00,,,-99.99,,2013-05-26 15:43:00,
2013-05-26 11:53:00,58.0,31.0,-100.00,NW,325,10.0,18.0,36,0.00,,,-99.99,,2013-05-26 15:53:00,
2013-05-26 12:03:00,59.0,31.0,-100.00,NNW,340,7.0,19.0,34,0.00,,,-99.99,,2013-05-26 16:03:00,
2013-05-26 12:12:00,59.0,30.0,-100.00,NNW,340,10.0,19.0,33,0.00,,,-99.99,,2013-05-26 16:12:00,
2013-05-26 12:23:00,60.0,31.0,-100.00,NNW,330,7.0,18.0,33,0.00,,,-99.99,,2013-05-26 16:23:00,
2013-05-26 12:33:00,59.0,29.0,-100.00,NNW,335,12.0,21.0,31,0.00,,,-99.99,,2013-05-26 16:33:00,
2013-05-26 12:42:00,60.0,31.0,-100.00,North,0,11.0,17.0,33,0.00,,,-99.99,,2013-05-26 16:42:00,
2013-05-26 12:52:00,60.0,30.0,-100.00,North,0,9.0,17.0,31,0.00,,,-99.99,,2013-05-26 16:52:00,
2013-05-26 13:02:00,60.0,28.0,-100.00,North,355,14.0,21.0,29,0.00,,,-99.99,,2013-05-26 17:02:00,
2013-05-26 13:11:00,61.0,28.0,-100.00,NNW,345,6.0,17.0,28,0.00,,,-99.99,,2013-05-26 17:11:00,
2013-05-26 13:22:00,61.0,29.0,-100.00,NNW,340,9.0,14.0,29,0.00,,,-99.99,,2013-05-26 17:22:00,
2013-05-26 13:32:00,60.0,29.0,-100.00,NW,320,7.0,17.0,31,0.00,,,-99.99,,2013-05-26 17:32:00,
2013-05-26 13:42:00,61.0,29.0,-100.00,North,0,11.0,17.0,29,0.00,,,-99.99,,2013-05-26 17:42:00,
2013-05-26 13:52:00,61.0,27.0,-100.00,NNW,345,9.0,14.0,27,0.00,,,-99.99,,2013-05-26 17:52:00,
2013-05-26 14:01:00,62.0,30.0,-100.00,North,0,13.0,16.0,29,0.00,,,-99.99,,2013-05-26 18:01:00,
2013-05-26 14:12:00,60.0,27.0,-100.00,West,275,9.0,18.0,28,0.00,,,-99.99,,2013-05-26 18:12:00,
2013-05-26 14:21:00,61.0,28.0,-100.00,NNW,345,12.0,19.0,28,0.00,,,-99.99,,2013-05-26 18:21:00,
2013-05-26 14:32:00,62.0,28.0,-100.00,NW,310,7.0,19.0,27,0.00,,,-99.99,,2013-05-26 18:32:00,
2013-05-26 14:42:00,62.0,28.0,-100.00,West,275,7.0,14.0,27,0.00,,,-99.99,,2013-05-26 18:42:00,
2013-05-26 14:52:00,62.0,26.0,-100.00,NNW,345,12.0,19.0,25,0.00,,,-99.99,,2013-05-26 18:52:00,
2013-05-26 15:01:00,62.0,29.0,-100.00,NW,325,10.0,13.0,28,0.00,,,-99.99,,2013-05-26 19:01:00,
2013-05-26 15:11:00,62.0,27.0,-100.00,NW,315,11.0,16.0,26,0.00,,,-99.99,,2013-05-26 19:11:00,
2013-05-26 15:22:00,62.0,28.0,-100.00,North,350,9.0,19.0,26,0.00,,,-99.99,,2013-05-26 19:22:00,
2013-05-26 15:32:00,63.0,26.0,-100.00,NNW,345,7.0,16.0,24,0.00,,,-99.99,,2013-05-26 19:32:00,
2013-05-26 15:42:00,63.0,28.0,-100.00,NNW,330,6.0,12.0,25,0.00,,,-99.99,,2013-05-26 19:42:00,
2013-05-26 15:52:00,63.0,27.0,-100.00,NW,320,10.0,17.0,25,0.00,,,-99.99,,2013-05-26 19:52:00,
2013-05-26 16:02:00,62.0,26.0,-100.00,NNW,330,12.0,16.0,24,0.00,,,-99.99,,2013-05-26 20:02:00,
2013-05-26 16:11:00,63.0,27.0,-100.00,NNW,345,7.0,14.0,25,0.00,,,-99.99,,2013-05-26 20:11:00,
2013-05-26 16:22:00,63.0,28.0,-100.00,North,0,9.0,12.0,26,0.00,,,-99.99,,2013-05-26 20:22:00,
2013-05-26 16:32:00,63.0,24.0,-100.00,NNW,345,10.0,17.0,22,0.00,,,-99.99,,2013-05-26 20:32:00,
2013-05-26 16:42:00,64.0,26.0,-100.00,NW,305,6.0,11.0,23,0.00,,,-99.99,,2013-05-26 20:42:00,
2013-05-26 16:52:00,62.0,24.0,-100.00,NNW,330,7.0,13.0,23,0.00,,,-99.99,,2013-05-26 20:52:00,
2013-05-26 17:02:00,63.0,25.0,-100.00,NW,310,8.0,12.0,23,0.00,,,-99.99,,2013-05-26 21:02:00,
2013-05-26 17:11:00,63.0,26.0,-100.00,West,270,6.0,12.0,23,0.00,,,-99.99,,2013-05-26 21:11:00,
2013-05-26 17:22:00,64.0,29.0,-100.00,North,0,4.0,11.0,26,0.00,,,-99.99,,2013-05-26 21:22:00,
2013-05-26 17:33:00,63.0,29.0,-100.00,North,350,12.0,19.0,26,0.00,,,-99.99,,2013-05-26 21:33:00,
2013-05-26 17:43:00,63.0,28.0,-100.00,North,355,6.0,14.0,25,0.00,,,-99.99,,2013-05-26 21:43:00,
2013-05-26 17:53:00,63.0,28.0,-100.00,NNW,335,6.0,13.0,26,0.00,,,-99.99,,2013-05-26 21:53:00,
2013-05-26 18:03:00,63.0,29.0,-100.00,NW,325,7.0,13.0,26,0.00,,,-99.99,,2013-05-26 22:03:00,
2013-05-26 18:12:00,63.0,28.0,-100.00,North,355,8.0,12.0,25,0.00,,,-99.99,,2013-05-26 22:12:00,
2013-05-26 18:23:00,64.0,28.0,-100.00,WNW,285,6.0,9.0,26,0.00,,,-99.99,,2013-05-26 22:23:00,
2013-05-26 18:33:00,63.0,30.0,-100.00,North,355,7.0,12.0,28,0.00,,,-99.99,,2013-05-26 22:33:00,
2013-05-26 18:42:00,63.0,29.0,-100.00,NNW,340,6.0,14.0,27,0.00,,,-99.99,,2013-05-26 22:42:00,
2013-05-26 18:53:00,64.0,29.0,-100.00,NW,325,1.0,10.0,26,0.00,,,-99.99,,2013-05-26 22:53:00,
2013-05-26 19:02:00,62.0,29.0,-100.00,North,355,9.0,14.0,28,0.00,,,-99.99,,2013-05-26 23:02:00,
2013-05-26 19:12:00,62.0,31.0,-100.00,North,355,6.0,12.0,30,0.00,,,-99.99,,2013-05-26 23:12:00,
2013-05-26 19:22:00,62.0,29.0,-100.00,NW,320,7.0,9.0,28,0.00,,,-99.99,,2013-05-26 23:22:00,
2013-05-26 19:32:00,62.0,28.0,-100.00,North,0,7.0,12.0,28,0.00,,,-99.99,,2013-05-26 23:32:00,
2013-05-26 19:43:00,61.0,28.0,-100.00,North,0,7.0,11.0,28,0.00,,,-99.99,,2013-05-26 23:43:00,
2013-05-26 19:52:00,61.0,29.0,-100.00,North,0,5.0,10.0,30,0.00,,,-99.99,,2013-05-26 23:52:00,
2013-05-26 20:02:00,60.0,29.0,-100.00,North,355,6.0,11.0,29,0.00,,,-99.99,,2013-05-27 00:02:00,
2013-05-26 20:11:00,60.0,29.0,-100.00,NNW,340,4.0,11.0,30,0.00,,,-99.99,,2013-05-27 00:11:00,
2013-05-26 20:22:00,60.0,29.0,-100.00,NW,320,4.0,7.0,30,0.00,,,-99.99,,2013-05-27 00:22:00,
2013-05-26 20:32:00,59.0,29.0,-100.00,NW,315,4.0,7.0,31,0.00,,,-99.99,,2013-05-27 00:32:00,
2013-05-26 20:42:00,58.0,29.0,-100.00,NNW,335,2.0,6.0,32,0.00,,,-99.99,,2013-05-27 00:42:00,
2013-05-26 20:52:00,58.0,29.0,-100.00,NNW,335,2.0,6.0,33,0.00,,,-99.99,,2013-05-27 00:52:00,
2013-05-26 21:01:00,57.0,29.0,-100.00,North,355,2.0,4.0,34,0.00,,,-99.99,,2013-05-27 01:01:00,
2013-05-26 21:11:00,56.0,30.0,-100.00,North,355,2.0,4.0,36,0.00,,,-99.99,,2013-05-27 01:11:00,
2013-05-26 21:22:00,56.0,30.0,-100.00,NNW,345,0.0,3.0,36,0.00,,,-99.99,,2013-05-27 01:22:00,
2013-05-26 21:32:00,55.0,32.0,-100.00,North,350,1.0,3.0,41,0.00,,,-99.99,,2013-05-27 01:32:00,
2013-05-26 21:42:00,54.0,33.0,-100.00,North,5,0.0,3.0,45,0.00,,,-99.99,,2013-05-27 01:42:00,
2013-05-26 21:52:00,53.0,34.0,-100.00,North,0,0.0,2.0,47,0.00,,,-99.99,,2013-05-27 01:52:00,
2013-05-26 22:02:00,53.0,34.0,-100.00,NE,40,0.0,2.0,47,0.00,,,-99.99,,2013-05-27 02:02:00,
2013-05-26 22:11:00,53.0,35.0,-100.00,NNE,20,0.0,1.0,51,0.00,,,-99.99,,2013-05-27 02:11:00,
2013-05-26 22:22:00,51.0,36.0,-100.00,NE,35,0.0,0.0,56,0.00,,,-99.99,,2013-05-27 02:22:00,
2013-05-26 22:32:00,51.0,36.0,-100.00,NE,35,0.0,1.0,56,0.00,,,-99.99,,2013-05-27 02:32:00,
2013-05-26 22:42:00,51.0,36.0,-100.00,ENE,60,0.0,1.0,56,0.00,,,-99.99,,2013-05-27 02:42:00,
2013-05-26 22:52:00,49.0,36.0,-100.00,NE,35,0.0,2.0,60,0.00,,,-99.99,,2013-05-27 02:52:00,
2013-05-26 23:02:00,49.0,37.0,-100.00,NE,45,0.0,2.0,63,0.00,,,-99.99,,2013-05-27 03:02:00,
2013-05-26 23:11:00,49.0,38.0,-100.00,NE,35,0.0,0.0,65,0.00,,,-99.99,,2013-05-27 03:11:00,
2013-05-26 23:21:00,49.0,37.0,-100.00,West,275,0.0,0.0,63,0.00,,,-99.99,,2013-05-27 03:21:00,
2013-05-26 23:33:00,49.0,37.0,-100.00,NW,325,0.0,0.0,62,0.00,,,-99.99,,2013-05-27 03:33:00,
2013-05-26 23:43:00,48.0,37.0,-100.00,NE,40,0.0,1.0,64,0.00,,,-99.99,,2013-05-27 03:43:00,
2013-05-26 23:53:00,47.0,36.0,-100.00,North,0,0.0,0.0,65,0.00,,,-99.99,,2013-05-27 03:53:00,